sensor_id;sensor_type;location;lat;lon;timestamp;pressure;altitude;pressure_sealevel;temperature;humidity
24280;BME280;12395;42.808;23.408;2023-01-10T00:01:45;94172.31;;;5.09;98.69
24280;BME280;12395;42.808;23.408;2023-01-10T00:04:11;94160.41;;;5.13;98.62
24280;BME280;12395;42.808;23.408;2023-01-10T00:06:36;94165.66;;;5.13;98.79
24280;BME280;12395;42.808;23.408;2023-01-10T00:09:02;94162.63;;;5.16;98.41
24280;BME280;12395;42.808;23.408;2023-01-10T00:11:27;94149.69;;;5.14;98.02
24280;BME280;12395;42.808;23.408;2023-01-10T00:14:11;94142.81;;;5.13;98.14
24280;BME280;12395;42.808;23.408;2023-01-10T00:16:37;94146.66;;;5.11;98.22
24280;BME280;12395;42.808;23.408;2023-01-10T00:19:03;94142.41;;;5.10;98.78
24280;BME280;12395;42.808;23.408;2023-01-10T00:21:29;94130.91;;;5.11;98.93
24280;BME280;12395;42.808;23.408;2023-01-10T00:23:55;94131.03;;;5.03;98.77
24280;BME280;12395;42.808;23.408;2023-01-10T00:26:23;94126.19;;;5.00;99.13
24280;BME280;12395;42.808;23.408;2023-01-10T00:28:48;94111.63;;;4.97;99.24
24280;BME280;12395;42.808;23.408;2023-01-10T00:31:15;94119.47;;;4.91;99.51
24280;BME280;12395;42.808;23.408;2023-01-10T00:33:40;94123.28;;;4.88;99.93
24280;BME280;12395;42.808;23.408;2023-01-10T00:36:06;94125.47;;;4.85;100.00
24280;BME280;12395;42.808;23.408;2023-01-10T00:38:32;94117.63;;;4.85;100.00
24280;BME280;12395;42.808;23.408;2023-01-10T00:40:58;94107.94;;;4.85;100.00
24280;BME280;12395;42.808;23.408;2023-01-10T00:43:23;94099.50;;;4.90;100.00
24280;BME280;12395;42.808;23.408;2023-01-10T00:46:07;94102.13;;;4.96;100.00
24280;BME280;12395;42.808;23.408;2023-01-10T00:48:33;94112.06;;;5.01;99.92
24280;BME280;12395;42.808;23.408;2023-01-10T00:50:58;94112.88;;;5.01;99.74
24280;BME280;12395;42.808;23.408;2023-01-10T00:53:23;94113.28;;;5.05;99.75
24280;BME280;12395;42.808;23.408;2023-01-10T00:55:48;94112.53;;;5.11;99.24
24280;BME280;12395;42.808;23.408;2023-01-10T00:58:14;94106.06;;;5.13;99.65
24280;BME280;12395;42.808;23.408;2023-01-10T01:00:40;94112.75;;;5.16;99.25
24280;BME280;12395;42.808;23.408;2023-01-10T01:03:06;94111.75;;;5.17;99.28
24280;BME280;12395;42.808;23.408;2023-01-10T01:05:32;94104.28;;;5.20;99.14
24280;BME280;12395;42.808;23.408;2023-01-10T01:07:57;94108.75;;;5.26;98.98
24280;BME280;12395;42.808;23.408;2023-01-10T01:10:22;94108.38;;;5.29;98.57
24280;BME280;12395;42.808;23.408;2023-01-10T01:12:51;94118.69;;;5.31;98.63
24280;BME280;12395;42.808;23.408;2023-01-10T01:15:17;94123.56;;;5.34;98.56
24280;BME280;12395;42.808;23.408;2023-01-10T01:17:42;94121.94;;;5.33;98.96
24280;BME280;12395;42.808;23.408;2023-01-10T01:20:07;94111.38;;;5.26;99.06
24280;BME280;12395;42.808;23.408;2023-01-10T01:22:33;94093.78;;;5.20;99.03
24280;BME280;12395;42.808;23.408;2023-01-10T01:24:58;94104.31;;;5.27;99.20
24280;BME280;12395;42.808;23.408;2023-01-10T01:27:23;94105.34;;;5.26;99.31
24280;BME280;12395;42.808;23.408;2023-01-10T01:29:49;94086.53;;;5.22;99.26
24280;BME280;12395;42.808;23.408;2023-01-10T01:32:14;94080.69;;;5.27;99.36
24280;BME280;12395;42.808;23.408;2023-01-10T01:34:39;94073.06;;;5.32;99.26
24280;BME280;12395;42.808;23.408;2023-01-10T01:37:05;94076.28;;;5.34;98.84
24280;BME280;12395;42.808;23.408;2023-01-10T01:39:31;94078.31;;;5.32;99.00
24280;BME280;12395;42.808;23.408;2023-01-10T01:41:56;94073.06;;;5.32;98.85
24280;BME280;12395;42.808;23.408;2023-01-10T01:44:21;94086.75;;;5.27;98.83
24280;BME280;12395;42.808;23.408;2023-01-10T01:47:04;94108.97;;;5.25;99.57
24280;BME280;12395;42.808;23.408;2023-01-10T01:49:30;94113.19;;;5.19;99.98
24280;BME280;12395;42.808;23.408;2023-01-10T01:51:58;94097.00;;;5.16;99.87
24280;BME280;12395;42.808;23.408;2023-01-10T01:54:25;94104.47;;;5.12;100.00
24280;BME280;12395;42.808;23.408;2023-01-10T01:57:00;94085.84;;;5.07;100.00
24280;BME280;12395;42.808;23.408;2023-01-10T01:59:29;94087.47;;;5.08;100.00
24280;BME280;12395;42.808;23.408;2023-01-10T02:02:01;94052.16;;;5.11;100.00
24280;BME280;12395;42.808;23.408;2023-01-10T02:04:37;94059.25;;;5.17;100.00
24280;BME280;12395;42.808;23.408;2023-01-10T02:07:05;94047.13;;;5.22;100.00
24280;BME280;12395;42.808;23.408;2023-01-10T02:09:32;94074.63;;;5.26;100.00
24280;BME280;12395;42.808;23.408;2023-01-10T02:11:58;94075.44;;;5.27;99.52
24280;BME280;12395;42.808;23.408;2023-01-10T02:14:25;94074.63;;;5.26;98.95
24280;BME280;12395;42.808;23.408;2023-01-10T02:16:50;94069.97;;;5.22;99.10
24280;BME280;12395;42.808;23.408;2023-01-10T02:19:19;94077.84;;;5.22;99.15
24280;BME280;12395;42.808;23.408;2023-01-10T02:22:04;94079.47;;;5.23;98.79
24280;BME280;12395;42.808;23.408;2023-01-10T02:27:12;94081.31;;;5.29;98.99
24280;BME280;12395;42.808;23.408;2023-01-10T02:40:19;94009.22;;;5.38;99.09
24280;BME280;12395;42.808;23.408;2023-01-10T02:45:13;94006.00;;;5.36;99.46
24280;BME280;12395;42.808;23.408;2023-01-10T02:47:40;94006.00;;;5.36;99.84
24280;BME280;12395;42.808;23.408;2023-01-10T02:52:43;94039.31;;;5.35;99.81
24280;BME280;12395;42.808;23.408;2023-01-10T02:55:08;94041.53;;;5.32;99.88
24280;BME280;12395;42.808;23.408;2023-01-10T02:57:44;94044.53;;;5.29;100.00
24280;BME280;12395;42.808;23.408;2023-01-10T03:00:17;94043.94;;;5.27;100.00
24280;BME280;12395;42.808;23.408;2023-01-10T03:10:49;94049.41;;;5.32;99.50
24280;BME280;12395;42.808;23.408;2023-01-10T03:13:20;94051.59;;;5.28;99.08
24280;BME280;12395;42.808;23.408;2023-01-10T03:15:50;94052.03;;;5.32;99.47
24280;BME280;12395;42.808;23.408;2023-01-10T03:18:21;94055.28;;;5.34;99.33
24280;BME280;12395;42.808;23.408;2023-01-10T03:20:48;94047.19;;;5.35;99.08
24280;BME280;12395;42.808;23.408;2023-01-10T03:23:15;94058.91;;;5.33;98.86
24280;BME280;12395;42.808;23.408;2023-01-10T03:25:40;94072.41;;;5.23;99.27
24280;BME280;12395;42.808;23.408;2023-01-10T03:28:09;94074.84;;;5.25;99.50
24280;BME280;12395;42.808;23.408;2023-01-10T03:31:19;94075.03;;;5.23;99.92
24280;BME280;12395;42.808;23.408;2023-01-10T03:33:26;94083.69;;;5.24;100.00
24280;BME280;12395;42.808;23.408;2023-01-10T03:38:41;94077.69;;;5.30;99.50
24280;BME280;12395;42.808;23.408;2023-01-10T03:41:13;94083.16;;;5.35;99.27
24280;BME280;12395;42.808;23.408;2023-01-10T03:46:25;94096.09;;;5.36;98.58
24280;BME280;12395;42.808;23.408;2023-01-10T03:48:51;94085.56;;;5.30;98.60
24280;BME280;12395;42.808;23.408;2023-01-10T03:51:17;94095.06;;;5.31;99.12
24280;BME280;12395;42.808;23.408;2023-01-10T03:53:43;94081.31;;;5.29;98.84
24280;BME280;12395;42.808;23.408;2023-01-10T03:56:11;94081.09;;;5.30;99.19
24280;BME280;12395;42.808;23.408;2023-01-10T03:58:37;94076.66;;;5.31;99.50
24280;BME280;12395;42.808;23.408;2023-01-10T04:01:02;94067.81;;;5.32;99.36
24280;BME280;12395;42.808;23.408;2023-01-10T04:03:27;94059.31;;;5.30;98.78
24280;BME280;12395;42.808;23.408;2023-01-10T04:05:52;94043.53;;;5.23;99.20
24280;BME280;12395;42.808;23.408;2023-01-10T04:08:18;94037.22;;;5.18;99.16
24280;BME280;12395;42.808;23.408;2023-01-10T04:10:43;94021.47;;;5.18;99.91
24280;BME280;12395;42.808;23.408;2023-01-10T04:13:08;94004.28;;;5.09;98.87
24280;BME280;12395;42.808;23.408;2023-01-10T04:15:33;93994.13;;;4.93;99.53
24280;BME280;12395;42.808;23.408;2023-01-10T04:17:59;93975.50;;;4.81;99.79
24280;BME280;12395;42.808;23.408;2023-01-10T04:20:24;93962.97;;;4.77;100.00
24280;BME280;12395;42.808;23.408;2023-01-10T04:22:52;93957.09;;;4.75;100.00
24280;BME280;12395;42.808;23.408;2023-01-10T04:25:18;93956.50;;;4.73;100.00
24280;BME280;12395;42.808;23.408;2023-01-10T04:27:44;93966.53;;;4.69;100.00
24280;BME280;12395;42.808;23.408;2023-01-10T04:30:09;93983.09;;;4.69;100.00
24280;BME280;12395;42.808;23.408;2023-01-10T04:32:34;93998.22;;;4.67;100.00
24280;BME280;12395;42.808;23.408;2023-01-10T04:35:00;94038.41;;;4.68;100.00
24280;BME280;12395;42.808;23.408;2023-01-10T04:37:25;94083.16;;;4.66;100.00
24280;BME280;12395;42.808;23.408;2023-01-10T04:39:50;94085.63;;;4.68;100.00
24280;BME280;12395;42.808;23.408;2023-01-10T04:42:16;94100.75;;;4.66;100.00
24280;BME280;12395;42.808;23.408;2023-01-10T04:44:41;94104.41;;;4.72;100.00
24280;BME280;12395;42.808;23.408;2023-01-10T04:47:06;94105.25;;;4.79;100.00
24280;BME280;12395;42.808;23.408;2023-01-10T04:49:31;94088.91;;;4.77;100.00
24280;BME280;12395;42.808;23.408;2023-01-10T04:51:57;94085.66;;;4.75;100.00
24280;BME280;12395;42.808;23.408;2023-01-10T04:54:22;94086.84;;;4.72;100.00
24280;BME280;12395;42.808;23.408;2023-01-10T04:56:48;94093.09;;;4.71;100.00
24280;BME280;12395;42.808;23.408;2023-01-10T04:59:13;94073.91;;;4.70;100.00
24280;BME280;12395;42.808;23.408;2023-01-10T05:01:38;94046.03;;;4.63;100.00
24280;BME280;12395;42.808;23.408;2023-01-10T05:04:04;94033.06;;;4.55;100.00
24280;BME280;12395;42.808;23.408;2023-01-10T05:06:30;94009.31;;;4.35;100.00
24280;BME280;12395;42.808;23.408;2023-01-10T05:08:56;94002.59;;;4.26;100.00
24280;BME280;12395;42.808;23.408;2023-01-10T05:11:21;94014.88;;;4.26;100.00
24280;BME280;12395;42.808;23.408;2023-01-10T05:13:46;94032.50;;;4.32;100.00
24280;BME280;12395;42.808;23.408;2023-01-10T05:16:12;94038.38;;;4.34;100.00
24280;BME280;12395;42.808;23.408;2023-01-10T05:18:37;94038.16;;;4.35;100.00
24280;BME280;12395;42.808;23.408;2023-01-10T05:21:03;94022.81;;;4.32;100.00
24280;BME280;12395;42.808;23.408;2023-01-10T05:23:29;94014.53;;;4.29;100.00
24280;BME280;12395;42.808;23.408;2023-01-10T05:25:55;94011.69;;;4.30;100.00
24280;BME280;12395;42.808;23.408;2023-01-10T05:28:20;94000.22;;;4.31;100.00
24280;BME280;12395;42.808;23.408;2023-01-10T05:30:46;94000.84;;;4.33;100.00
24280;BME280;12395;42.808;23.408;2023-01-10T05:33:11;93997.41;;;4.33;100.00
24280;BME280;12395;42.808;23.408;2023-01-10T05:35:36;94012.50;;;4.31;100.00
24280;BME280;12395;42.808;23.408;2023-01-10T05:38:01;94003.03;;;4.30;100.00
24280;BME280;12395;42.808;23.408;2023-01-10T05:40:27;94005.06;;;4.34;100.00
24280;BME280;12395;42.808;23.408;2023-01-10T05:42:52;94024.09;;;4.43;100.00
24280;BME280;12395;42.808;23.408;2023-01-10T05:45:17;94020.88;;;4.47;100.00
24280;BME280;12395;42.808;23.408;2023-01-10T05:47:43;94023.50;;;4.47;100.00
24280;BME280;12395;42.808;23.408;2023-01-10T05:50:09;94017.28;;;4.48;100.00
24280;BME280;12395;42.808;23.408;2023-01-10T05:52:34;94012.84;;;4.49;100.00
24280;BME280;12395;42.808;23.408;2023-01-10T05:54:59;94025.38;;;4.53;100.00
24280;BME280;12395;42.808;23.408;2023-01-10T05:57:25;94046.22;;;4.61;100.00
24280;BME280;12395;42.808;23.408;2023-01-10T05:59:50;94058.94;;;4.64;100.00
24280;BME280;12395;42.808;23.408;2023-01-10T06:02:15;94052.91;;;4.70;100.00
24280;BME280;12395;42.808;23.408;2023-01-10T06:04:41;94053.56;;;4.73;100.00
24280;BME280;12395;42.808;23.408;2023-01-10T06:07:06;94050.94;;;4.73;100.00
24280;BME280;12395;42.808;23.408;2023-01-10T06:09:31;94046.69;;;4.72;100.00
24280;BME280;12395;42.808;23.408;2023-01-10T06:11:56;94047.28;;;4.74;100.00
24280;BME280;12395;42.808;23.408;2023-01-10T06:14:22;94045.91;;;4.78;100.00
24280;BME280;12395;42.808;23.408;2023-01-10T06:16:47;94048.94;;;4.75;100.00
24280;BME280;12395;42.808;23.408;2023-01-10T06:19:12;94055.41;;;4.79;100.00
24280;BME280;12395;42.808;23.408;2023-01-10T06:21:38;94060.47;;;4.80;100.00
24280;BME280;12395;42.808;23.408;2023-01-10T06:24:03;94060.25;;;4.82;100.00
24280;BME280;12395;42.808;23.408;2023-01-10T06:26:28;94045.28;;;4.76;100.00
24280;BME280;12395;42.808;23.408;2023-01-10T06:28:54;94046.06;;;4.69;100.00
24280;BME280;12395;42.808;23.408;2023-01-10T06:31:19;94047.28;;;4.74;100.00
24280;BME280;12395;42.808;23.408;2023-01-10T06:33:44;94046.91;;;4.77;100.00
24280;BME280;12395;42.808;23.408;2023-01-10T06:36:10;94029.94;;;4.73;100.00
24280;BME280;12395;42.808;23.408;2023-01-10T06:38:35;94040.91;;;4.83;100.00
24280;BME280;12395;42.808;23.408;2023-01-10T06:41:00;94033.22;;;4.88;100.00
24280;BME280;12395;42.808;23.408;2023-01-10T06:43:37;94036.09;;;4.93;100.00
24280;BME280;12395;42.808;23.408;2023-01-10T06:46:03;94036.09;;;4.93;100.00
24280;BME280;12395;42.808;23.408;2023-01-10T06:48:28;94032.69;;;4.99;100.00
24280;BME280;12395;42.808;23.408;2023-01-10T06:50:53;94032.72;;;5.05;100.00
24280;BME280;12395;42.808;23.408;2023-01-10T06:53:18;94037.63;;;5.15;100.00
24280;BME280;12395;42.808;23.408;2023-01-10T06:55:44;94036.63;;;5.22;100.00
24280;BME280;12395;42.808;23.408;2023-01-10T06:58:09;94039.88;;;5.24;100.00
24280;BME280;12395;42.808;23.408;2023-01-10T07:00:34;94035.69;;;5.30;100.00
24280;BME280;12395;42.808;23.408;2023-01-10T07:03:00;94022.94;;;5.27;100.00
24280;BME280;12395;42.808;23.408;2023-01-10T07:05:25;94024.13;;;5.24;100.00
24280;BME280;12395;42.808;23.408;2023-01-10T07:07:51;94026.16;;;5.29;100.00
24280;BME280;12395;42.808;23.408;2023-01-10T07:10:16;94025.97;;;5.30;100.00
24280;BME280;12395;42.808;23.408;2023-01-10T07:12:41;94026.59;;;5.39;100.00
24280;BME280;12395;42.808;23.408;2023-01-10T07:15:07;94025.41;;;5.41;100.00
24280;BME280;12395;42.808;23.408;2023-01-10T07:17:32;94030.25;;;5.38;100.00
24280;BME280;12395;42.808;23.408;2023-01-10T07:19:57;94017.50;;;5.35;100.00
24280;BME280;12395;42.808;23.408;2023-01-10T07:22:23;94017.91;;;5.32;100.00
24280;BME280;12395;42.808;23.408;2023-01-10T07:24:48;94021.31;;;5.32;100.00
24280;BME280;12395;42.808;23.408;2023-01-10T07:27:13;94030.22;;;5.31;100.00
24280;BME280;12395;42.808;23.408;2023-01-10T07:29:38;94018.91;;;5.31;100.00
24280;BME280;12395;42.808;23.408;2023-01-10T07:32:04;94023.56;;;5.35;100.00
24280;BME280;12395;42.808;23.408;2023-01-10T07:34:29;94017.13;;;5.38;100.00
24280;BME280;12395;42.808;23.408;2023-01-10T07:36:55;94008.00;;;5.27;100.00
24280;BME280;12395;42.808;23.408;2023-01-10T07:39:20;94004.72;;;5.19;100.00
24280;BME280;12395;42.808;23.408;2023-01-10T07:41:46;93998.28;;;5.21;100.00
24280;BME280;12395;42.808;23.408;2023-01-10T07:44:11;93996.44;;;5.22;100.00
24280;BME280;12395;42.808;23.408;2023-01-10T07:46:36;94000.69;;;5.23;100.00
24280;BME280;12395;42.808;23.408;2023-01-10T07:49:02;94000.69;;;5.23;100.00
24280;BME280;12395;42.808;23.408;2023-01-10T07:51:27;93995.03;;;5.19;100.00
24280;BME280;12395;42.808;23.408;2023-01-10T07:53:52;94003.69;;;5.20;100.00
24280;BME280;12395;42.808;23.408;2023-01-10T07:56:17;94002.31;;;5.24;100.00
24280;BME280;12395;42.808;23.408;2023-01-10T07:58:42;93997.66;;;5.19;100.00
24280;BME280;12395;42.808;23.408;2023-01-10T08:01:10;93997.66;;;5.19;100.00
24280;BME280;12395;42.808;23.408;2023-01-10T08:03:35;93991.03;;;5.30;100.00
24280;BME280;12395;42.808;23.408;2023-01-10T08:06:04;93984.38;;;5.34;100.00
24280;BME280;12395;42.808;23.408;2023-01-10T08:08:30;93982.19;;;5.44;100.00
24280;BME280;12395;42.808;23.408;2023-01-10T08:10:56;93978.13;;;5.48;100.00
24280;BME280;12395;42.808;23.408;2023-01-10T08:13:23;93982.19;;;5.44;100.00
24280;BME280;12395;42.808;23.408;2023-01-10T08:15:49;93984.00;;;5.50;100.00
24280;BME280;12395;42.808;23.408;2023-01-10T08:18:15;93992.31;;;5.54;100.00
24280;BME280;12395;42.808;23.408;2023-01-10T08:20:41;93986.63;;;5.50;100.00
24280;BME280;12395;42.808;23.408;2023-01-10T08:23:06;93994.31;;;5.45;100.00
24280;BME280;12395;42.808;23.408;2023-01-10T08:25:31;93991.88;;;5.43;100.00
24280;BME280;12395;42.808;23.408;2023-01-10T08:27:57;93987.41;;;5.37;100.00
24280;BME280;12395;42.808;23.408;2023-01-10T08:30:22;93985.97;;;5.35;100.00
24280;BME280;12395;42.808;23.408;2023-01-10T08:32:47;93976.69;;;5.39;100.00
24280;BME280;12395;42.808;23.408;2023-01-10T08:35:13;93977.72;;;5.38;100.00
24280;BME280;12395;42.808;23.408;2023-01-10T08:37:38;93962.78;;;5.38;100.00
24280;BME280;12395;42.808;23.408;2023-01-10T08:40:04;93955.09;;;5.43;100.00
24280;BME280;12395;42.808;23.408;2023-01-10T08:42:29;93946.63;;;5.48;100.00
24280;BME280;12395;42.808;23.408;2023-01-10T08:44:54;93939.78;;;5.60;100.00
24280;BME280;12395;42.808;23.408;2023-01-10T08:47:20;93948.88;;;5.64;100.00
24280;BME280;12395;42.808;23.408;2023-01-10T08:49:45;93929.88;;;5.62;100.00
24280;BME280;12395;42.808;23.408;2023-01-10T08:52:13;93925.63;;;5.68;100.00
24280;BME280;12395;42.808;23.408;2023-01-10T08:54:39;93915.94;;;5.68;100.00
24280;BME280;12395;42.808;23.408;2023-01-10T08:57:04;93916.94;;;5.67;100.00
24280;BME280;12395;42.808;23.408;2023-01-10T08:59:29;93919.56;;;5.80;100.00
24280;BME280;12395;42.808;23.408;2023-01-10T09:01:54;93918.19;;;5.84;100.00
24280;BME280;12395;42.808;23.408;2023-01-10T09:04:22;93900.81;;;5.96;100.00
24280;BME280;12395;42.808;23.408;2023-01-10T09:06:47;93903.81;;;6.00;100.00
24280;BME280;12395;42.808;23.408;2023-01-10T09:09:13;93901.59;;;6.03;100.00
24280;BME280;12395;42.808;23.408;2023-01-10T09:11:38;93901.19;;;6.19;100.00
24280;BME280;12395;42.808;23.408;2023-01-10T09:14:03;93905.81;;;6.31;100.00
24280;BME280;12395;42.808;23.408;2023-01-10T09:16:31;93900.94;;;6.41;100.00
24280;BME280;12395;42.808;23.408;2023-01-10T09:18:56;93896.03;;;6.51;100.00
24280;BME280;12395;42.808;23.408;2023-01-10T09:21:21;93896.22;;;6.62;100.00
24280;BME280;12395;42.808;23.408;2023-01-10T09:23:47;93889.88;;;6.76;100.00
24280;BME280;12395;42.808;23.408;2023-01-10T09:26:12;93901.38;;;6.88;100.00
24280;BME280;12395;42.808;23.408;2023-01-10T09:28:37;93903.53;;;6.98;100.00
24280;BME280;12395;42.808;23.408;2023-01-10T09:31:03;93910.81;;;7.03;100.00
24280;BME280;12395;42.808;23.408;2023-01-10T09:33:29;93905.56;;;7.03;100.00
24280;BME280;12395;42.808;23.408;2023-01-10T09:35:58;93899.91;;;6.99;100.00
24280;BME280;12395;42.808;23.408;2023-01-10T09:38:23;93886.75;;;6.99;100.00
24280;BME280;12395;42.808;23.408;2023-01-10T09:40:55;93889.75;;;7.03;100.00
24280;BME280;12395;42.808;23.408;2023-01-10T09:43:37;93885.91;;;7.05;100.00
24280;BME280;12395;42.808;23.408;2023-01-10T09:49:05;93877.81;;;7.00;100.00
24280;BME280;12395;42.808;23.408;2023-01-10T09:51:35;93873.38;;;7.00;100.00
24280;BME280;12395;42.808;23.408;2023-01-10T09:54:04;93873.13;;;7.02;100.00
24280;BME280;12395;42.808;23.408;2023-01-10T09:56:30;93853.75;;;6.96;100.00
24280;BME280;12395;42.808;23.408;2023-01-10T09:58:57;93855.81;;;6.88;100.00
24280;BME280;12395;42.808;23.408;2023-01-10T10:01:26;93858.00;;;6.91;100.00
24280;BME280;12395;42.808;23.408;2023-01-10T10:06:18;93855.63;;;6.83;100.00
24280;BME280;12395;42.808;23.408;2023-01-10T10:08:46;93846.56;;;6.72;100.00
24280;BME280;12395;42.808;23.408;2023-01-10T10:31:48;93819.19;;;6.36;100.00
24280;BME280;12395;42.808;23.408;2023-01-10T10:36:53;93817.59;;;6.35;100.00
24280;BME280;12395;42.808;23.408;2023-01-10T10:42:15;93821.41;;;6.39;100.00
24280;BME280;12395;42.808;23.408;2023-01-10T10:47:17;93810.41;;;6.55;100.00
24280;BME280;12395;42.808;23.408;2023-01-10T10:49:51;93802.91;;;6.58;100.00
24280;BME280;12395;42.808;23.408;2023-01-10T10:52:22;93813.59;;;6.63;100.00
24280;BME280;12395;42.808;23.408;2023-01-10T10:54:48;93806.13;;;6.67;100.00
24280;BME280;12395;42.808;23.408;2023-01-10T10:57:14;93806.91;;;6.67;100.00
24280;BME280;12395;42.808;23.408;2023-01-10T10:59:40;93807.31;;;6.71;100.00
24280;BME280;12395;42.808;23.408;2023-01-10T11:02:25;93811.34;;;6.73;100.00
24280;BME280;12395;42.808;23.408;2023-01-10T11:04:52;93800.00;;;6.73;100.00
24280;BME280;12395;42.808;23.408;2023-01-10T11:07:17;93807.31;;;6.71;100.00
24280;BME280;12395;42.808;23.408;2023-01-10T11:09:43;93805.94;;;6.62;100.00
24280;BME280;12395;42.808;23.408;2023-01-10T11:12:16;93799.25;;;6.59;100.00
24280;BME280;12395;42.808;23.408;2023-01-10T11:14:44;93790.53;;;6.59;100.00
24280;BME280;12395;42.808;23.408;2023-01-10T11:19:41;93787.53;;;6.55;100.00
24280;BME280;12395;42.808;23.408;2023-01-10T11:22:18;93779.03;;;6.60;100.00
24280;BME280;12395;42.808;23.408;2023-01-10T11:24:54;93775.31;;;6.67;100.00
24280;BME280;12395;42.808;23.408;2023-01-10T11:27:27;93775.50;;;6.72;100.00
24280;BME280;12395;42.808;23.408;2023-01-10T11:32:22;93786.78;;;6.86;100.00
24280;BME280;12395;42.808;23.408;2023-01-10T11:34:58;93782.69;;;6.90;100.00
24280;BME280;12395;42.808;23.408;2023-01-10T11:37:29;93779.63;;;6.93;100.00
24280;BME280;12395;42.808;23.408;2023-01-10T11:42:34;93777.38;;;6.96;100.00
24280;BME280;12395;42.808;23.408;2023-01-10T11:45:18;93784.88;;;6.93;100.00
24280;BME280;12395;42.808;23.408;2023-01-10T11:47:52;93781.28;;;6.87;100.00
24280;BME280;12395;42.808;23.408;2023-01-10T11:50:20;93775.22;;;6.87;100.00
24280;BME280;12395;42.808;23.408;2023-01-10T11:52:46;93776.66;;;6.83;100.00
24280;BME280;12395;42.808;23.408;2023-01-10T11:55:21;93763.28;;;6.84;100.00
24280;BME280;12395;42.808;23.408;2023-01-10T11:57:58;93761.22;;;6.86;100.00
24280;BME280;12395;42.808;23.408;2023-01-10T12:00:39;93758.00;;;6.84;100.00
24280;BME280;12395;42.808;23.408;2023-01-10T12:05:39;93760.22;;;6.87;100.00
24280;BME280;12395;42.808;23.408;2023-01-10T12:08:05;93756.75;;;6.93;100.00
24280;BME280;12395;42.808;23.408;2023-01-10T12:10:32;93744.97;;;6.96;100.00
24280;BME280;12395;42.808;23.408;2023-01-10T12:12:59;93748.78;;;7.00;100.00
24280;BME280;12395;42.808;23.408;2023-01-10T12:17:49;93756.75;;;6.93;100.00
24280;BME280;12395;42.808;23.408;2023-01-10T12:20:15;93752.50;;;6.92;100.00
24280;BME280;12395;42.808;23.408;2023-01-10T12:22:44;93753.97;;;6.88;100.00
24280;BME280;12395;42.808;23.408;2023-01-10T12:25:21;93755.19;;;6.86;100.00
24280;BME280;12395;42.808;23.408;2023-01-10T12:27:47;93753.72;;;6.90;100.00
24280;BME280;12395;42.808;23.408;2023-01-10T12:30:28;93760.19;;;6.94;100.00
24280;BME280;12395;42.808;23.408;2023-01-10T12:32:55;93750.66;;;6.93;100.00
24280;BME280;12395;42.808;23.408;2023-01-10T12:35:45;93758.72;;;6.98;100.00
24280;BME280;12395;42.808;23.408;2023-01-10T12:38:18;93757.50;;;7.00;100.00
24280;BME280;12395;42.808;23.408;2023-01-10T12:41:03;93764.97;;;7.03;100.00
24280;BME280;12395;42.808;23.408;2023-01-10T12:43:35;93770.44;;;7.02;100.00
24280;BME280;12395;42.808;23.408;2023-01-10T12:46:25;93768.25;;;6.99;100.00
24280;BME280;12395;42.808;23.408;2023-01-10T12:49:04;93760.56;;;6.97;100.00
24280;BME280;12395;42.808;23.408;2023-01-10T12:51:32;93756.91;;;6.98;100.00
24280;BME280;12395;42.808;23.408;2023-01-10T12:54:01;93744.34;;;7.00;100.00
24280;BME280;12395;42.808;23.408;2023-01-10T12:56:28;93743.97;;;6.97;100.00
24280;BME280;12395;42.808;23.408;2023-01-10T12:58:57;93742.56;;;6.94;100.00
24280;BME280;12395;42.808;23.408;2023-01-10T13:01:28;93738.72;;;6.97;100.00
24280;BME280;12395;42.808;23.408;2023-01-10T13:03:56;93725.38;;;6.92;100.00
24280;BME280;12395;42.808;23.408;2023-01-10T13:06:30;93740.25;;;7.05;100.00
24280;BME280;12395;42.808;23.408;2023-01-10T13:08:56;93745.69;;;7.10;100.00
24280;BME280;12395;42.808;23.408;2023-01-10T13:11:23;93756.19;;;7.16;100.00
24280;BME280;12395;42.808;23.408;2023-01-10T13:13:52;93756.56;;;7.20;100.00
24280;BME280;12395;42.808;23.408;2023-01-10T13:21:24;93757.50;;;7.25;100.00
24280;BME280;12395;42.808;23.408;2023-01-10T13:23:50;93760.72;;;7.27;100.00
24280;BME280;12395;42.808;23.408;2023-01-10T13:26:16;93742.75;;;7.24;100.00
24280;BME280;12395;42.808;23.408;2023-01-10T13:28:58;93757.50;;;7.25;100.00
24280;BME280;12395;42.808;23.408;2023-01-10T13:31:30;93760.53;;;7.29;100.00
24280;BME280;12395;42.808;23.408;2023-01-10T13:36:23;93762.94;;;7.30;100.00
24280;BME280;12395;42.808;23.408;2023-01-10T13:38:50;93767.22;;;7.31;100.00
24280;BME280;12395;42.808;23.408;2023-01-10T13:41:17;93762.41;;;7.22;100.00
24280;BME280;12395;42.808;23.408;2023-01-10T13:44:02;93779.03;;;7.22;100.00
24280;BME280;12395;42.808;23.408;2023-01-10T13:51:21;93770.41;;;7.09;100.00
24280;BME280;12395;42.808;23.408;2023-01-10T13:53:50;93769.00;;;7.06;100.00
24280;BME280;12395;42.808;23.408;2023-01-10T13:56:38;93775.13;;;7.00;100.00
24280;BME280;12395;42.808;23.408;2023-01-10T13:59:09;93781.22;;;7.00;100.00
24280;BME280;12395;42.808;23.408;2023-01-10T14:01:53;93777.34;;;7.03;100.00
24280;BME280;12395;42.808;23.408;2023-01-10T14:04:51;93778.19;;;6.97;100.00
24280;BME280;12395;42.808;23.408;2023-01-10T14:07:22;93790.97;;;6.93;100.00
24280;BME280;12395;42.808;23.408;2023-01-10T14:09:49;93789.16;;;6.94;100.00
24280;BME280;12395;42.808;23.408;2023-01-10T14:14:41;93791.00;;;6.87;100.00
24280;BME280;12395;42.808;23.408;2023-01-10T14:19:34;93783.69;;;6.89;100.00
24280;BME280;12395;42.808;23.408;2023-01-10T14:22:00;93785.59;;;6.82;100.00
24280;BME280;12395;42.808;23.408;2023-01-10T14:24:27;93783.97;;;6.81;100.00
24280;BME280;12395;42.808;23.408;2023-01-10T14:26:53;93777.88;;;6.80;100.00
24280;BME280;12395;42.808;23.408;2023-01-10T14:29:19;93781.72;;;6.78;100.00
24280;BME280;12395;42.808;23.408;2023-01-10T14:31:45;93788.88;;;6.71;100.00